Time;durP1;ratioP1;P1;durP2;ratioP2;P2;SDS_P1;SDS_P2;PMS_P1;PMS_P2;Temp;Humidity;BMP_temperature;BMP_pressure;BME280_temperature;BME280_humidity;BME280_pressure;Samples;Min_cycle;Max_cycle;Signal;HPM_P1;HPM_P2
2023/04/26 00:01:41;;;;;;;9.47;6.30;;;6.30;1.00;;;;;;5006538;28;20440;-73
2023/04/26 00:04:07;;;;;;;9.07;6.83;;;6.30;1.00;;;;;;5007739;28;20182;-73
2023/04/26 00:06:33;;;;;;;9.20;6.17;;;6.20;1.00;;;;;;5002786;28;20784;-73
2023/04/26 00:08:59;;;;;;;8.40;6.37;;;6.20;1.00;;;;;;4984098;28;20492;-74
2023/04/26 00:11:25;;;;;;;12.23;7.07;;;6.10;1.00;;;;;;4991896;28;20487;-75
2023/04/26 00:13:50;;;;;;;17.20;8.70;;;6.00;1.00;;;;;;5002284;28;20501;-74
2023/04/26 00:16:17;;;;;;;11.80;6.43;;;6.00;1.00;;;;;;4997528;28;20186;-74
2023/04/26 00:18:43;;;;;;;9.63;5.83;;;5.90;1.00;;;;;;4983320;28;20672;-73
2023/04/26 00:21:09;;;;;;;10.60;6.43;;;5.90;1.00;;;;;;4999021;28;20457;-74
2023/04/26 00:23:35;;;;;;;9.20;6.50;;;5.80;1.00;;;;;;4991827;28;20649;-74
2023/04/26 00:26:01;;;;;;;8.77;6.40;;;5.80;1.00;;;;;;5006371;28;20179;-72
2023/04/26 00:28:28;;;;;;;8.93;5.77;;;5.80;1.00;;;;;;5006208;28;20480;-74
2023/04/26 00:30:56;;;;;;;8.73;6.20;;;5.80;1.00;;;;;;5008256;28;20667;-73
2023/04/26 00:33:22;;;;;;;11.60;5.43;;;5.80;1.00;;;;;;4988203;28;20430;-74
2023/04/26 00:35:48;;;;;;;14.20;6.90;;;5.80;1.00;;;;;;4988473;28;20813;-74
2023/04/26 00:38:13;;;;;;;9.57;6.40;;;5.80;1.00;;;;;;4988502;28;20576;-73
2023/04/26 00:40:39;;;;;;;11.10;5.90;;;5.80;1.00;;;;;;5007221;28;20183;-73
2023/04/26 00:43:05;;;;;;;12.57;6.67;;;5.70;1.00;;;;;;4991192;28;20209;-73
2023/04/26 00:45:31;;;;;;;10.37;6.90;;;5.60;1.00;;;;;;5006880;28;20214;-74
2023/04/26 00:47:58;;;;;;;11.10;6.97;;;5.50;1.00;;;;;;5005087;28;21017;-74
2023/04/26 00:50:24;;;;;;;11.63;6.40;;;5.50;1.00;;;;;;4988713;28;20221;-73
2023/04/26 00:52:50;;;;;;;11.50;6.83;;;5.50;1.00;;;;;;5005308;28;20438;-74
2023/04/26 00:55:17;;;;;;;11.17;7.03;;;5.50;1.00;;;;;;5008200;28;20187;-74
2023/04/26 00:57:44;;;;;;;8.93;5.90;;;5.50;1.00;;;;;;4988465;28;20991;-73
2023/04/26 01:00:10;;;;;;;9.30;6.17;;;5.50;1.00;;;;;;4990176;28;20865;-73
2023/04/26 01:02:37;;;;;;;11.27;6.30;;;5.40;1.00;;;;;;5006318;28;20499;-73
2023/04/26 01:05:03;;;;;;;10.40;6.23;;;5.30;1.00;;;;;;5003379;28;20518;-73
2023/04/26 01:07:30;;;;;;;8.97;6.33;;;5.30;1.00;;;;;;4984495;28;20461;-73
2023/04/26 01:09:57;;;;;;;11.77;7.33;;;5.20;1.00;;;;;;4987430;28;20492;-73
2023/04/26 01:12:23;;;;;;;8.73;6.70;;;5.10;1.00;;;;;;5002783;28;20470;-73
2023/04/26 01:14:48;;;;;;;12.90;7.13;;;5.10;1.00;;;;;;5006922;28;20460;-75
2023/04/26 01:17:14;;;;;;;12.20;7.50;;;5.00;1.00;;;;;;4990126;28;20441;-73
2023/04/26 01:19:47;;;;;;;11.67;7.40;;;5.00;1.00;;;;;;5006577;28;20175;-74
2023/04/26 01:22:13;;;;;;;15.67;6.73;;;5.00;1.00;;;;;;5001847;28;20202;-73
2023/04/26 01:24:41;;;;;;;13.67;6.73;;;5.00;1.00;;;;;;4981908;28;20975;-74
2023/04/26 01:27:06;;;;;;;11.27;6.20;;;5.10;1.00;;;;;;5006588;28;20257;-73
2023/04/26 01:29:32;;;;;;;9.80;6.43;;;5.10;1.00;;;;;;4988526;28;20552;-73
2023/04/26 01:31:58;;;;;;;11.27;6.83;;;5.10;1.00;;;;;;5005303;28;20231;-72
2023/04/26 01:34:23;;;;;;;14.20;6.27;;;5.00;1.00;;;;;;5006232;28;20187;-73
2023/04/26 01:36:49;;;;;;;11.87;6.40;;;5.00;1.00;;;;;;5003264;28;20182;-73
2023/04/26 01:39:14;;;;;;;14.57;7.03;;;4.90;1.00;;;;;;4985099;28;20213;-73
2023/04/26 01:41:40;;;;;;;11.13;6.57;;;4.90;1.00;;;;;;5006995;28;20246;-72
2023/04/26 01:44:06;;;;;;;9.07;5.90;;;4.90;1.00;;;;;;5001416;28;20569;-73
2023/04/26 01:46:31;;;;;;;9.07;5.73;;;4.90;1.00;;;;;;5006181;28;20186;-74
2023/04/26 01:48:57;;;;;;;8.97;5.80;;;4.90;1.00;;;;;;5006954;28;20575;-73
2023/04/26 01:51:22;;;;;;;10.40;5.80;;;4.80;1.00;;;;;;4999904;28;20261;-74
2023/04/26 01:53:48;;;;;;;9.30;6.20;;;3.00;1.00;;;;;;5002495;28;20269;-73
2023/04/26 01:56:14;;;;;;;11.83;6.10;;;4.80;1.00;;;;;;5007802;28;20644;-74
2023/04/26 01:58:40;;;;;;;9.40;6.47;;;4.70;1.00;;;;;;5004827;28;20198;-72
2023/04/26 02:01:08;;;;;;;7.27;5.47;;;4.60;1.00;;;;;;5006698;28;20870;-74
2023/04/26 02:03:34;;;;;;;10.13;6.20;;;4.50;1.00;;;;;;5005927;28;20183;-73
2023/04/26 02:06:00;;;;;;;9.03;5.90;;;4.50;1.00;;;;;;5001191;28;20433;-73
2023/04/26 02:08:26;;;;;;;11.33;6.20;;;4.50;1.00;;;;;;5004301;28;20514;-74
2023/04/26 02:10:51;;;;;;;11.60;6.40;;;4.50;1.00;;;;;;4996043;28;20528;-73
2023/04/26 02:13:18;;;;;;;8.50;5.93;;;4.50;1.00;;;;;;4988806;28;20189;-73
2023/04/26 02:15:48;;;;;;;11.33;6.40;;;4.60;1.00;;;;;;4997858;28;20175;-73
2023/04/26 02:18:14;;;;;;;13.33;6.30;;;4.60;1.00;;;;;;5005759;28;20551;-73
2023/04/26 02:20:44;;;;;;;8.13;5.20;;;4.60;1.00;;;;;;4998081;28;20434;-74
2023/04/26 02:23:10;;;;;;;8.43;5.67;;;4.50;1.00;;;;;;5001214;28;20469;-73
2023/04/26 02:25:36;;;;;;;7.17;4.83;;;4.30;1.00;;;;;;4989186;28;20444;-73
2023/04/26 02:28:02;;;;;;;7.73;5.60;;;4.10;1.00;;;;;;4979285;28;20990;-73
2023/04/26 02:30:28;;;;;;;11.03;5.90;;;4.60;1.00;;;;;;5000092;28;20222;-73
2023/04/26 02:32:54;;;;;;;8.80;5.30;;;4.20;1.00;;;;;;5007405;28;21065;-74
2023/04/26 02:35:20;;;;;;;10.90;6.07;;;3.90;1.00;;;;;;4998356;28;21337;-73
2023/04/26 02:37:47;;;;;;;8.73;5.40;;;4.30;1.00;;;;;;5003915;28;20236;-74
2023/04/26 02:40:14;;;;;;;10.20;5.23;;;3.90;1.00;;;;;;5005480;28;20187;-73
2023/04/26 02:42:40;;;;;;;7.77;5.67;;;3.90;1.00;;;;;;4982426;28;20444;-74
2023/04/26 02:45:06;;;;;;;9.23;5.70;;;4.00;1.00;;;;;;4989603;28;20449;-72
2023/04/26 02:47:35;;;;;;;10.70;6.03;;;3.90;1.00;;;;;;4982319;28;20211;-75
2023/04/26 02:50:01;;;;;;;10.83;5.63;;;3.90;1.00;;;;;;5006799;28;20461;-74
2023/04/26 02:52:27;;;;;;;8.27;5.33;;;4.30;1.00;;;;;;4987944;28;20425;-73
2023/04/26 02:54:52;;;;;;;7.50;5.50;;;3.80;1.00;;;;;;5006256;28;20430;-73
2023/04/26 02:57:18;;;;;;;11.83;5.60;;;3.80;1.00;;;;;;5005525;28;20210;-74
2023/04/26 02:59:43;;;;;;;15.23;5.57;;;5.00;1.00;;;;;;4985271;28;20178;-73
2023/04/26 03:02:09;;;;;;;8.30;5.70;;;4.20;1.00;;;;;;5001278;28;20186;-75
2023/04/26 03:04:34;;;;;;;10.50;5.20;;;4.20;1.00;;;;;;4993498;28;20182;-73
2023/04/26 03:07:02;;;;;;;11.60;6.23;;;3.70;1.00;;;;;;5003518;28;20229;-73
2023/04/26 03:09:27;;;;;;;9.33;5.90;;;3.70;1.00;;;;;;4987759;28;20238;-74
2023/04/26 03:11:53;;;;;;;9.60;5.40;;;3.60;1.00;;;;;;5003596;28;20529;-73
2023/04/26 03:14:18;;;;;;;10.30;5.87;;;3.90;1.00;;;;;;5007726;28;20186;-73
2023/04/26 03:16:45;;;;;;;9.10;5.70;;;3.90;1.00;;;;;;5009393;28;20571;-73
2023/04/26 03:19:10;;;;;;;9.97;6.03;;;3.60;1.00;;;;;;5007349;28;20453;-73
2023/04/26 03:21:36;;;;;;;13.43;5.97;;;3.60;1.00;;;;;;5007072;28;20190;-73
2023/04/26 03:24:02;;;;;;;11.57;6.20;;;4.00;1.00;;;;;;5010827;28;20257;-73
2023/04/26 03:26:27;;;;;;;11.73;5.93;;;3.60;1.00;;;;;;5008784;28;20563;-74
2023/04/26 03:28:53;;;;;;;11.27;6.07;;;3.50;1.00;;;;;;4990310;28;20684;-73
2023/04/26 03:31:20;;;;;;;10.47;5.97;;;3.90;1.00;;;;;;5003131;28;20183;-73
2023/04/26 03:33:46;;;;;;;8.73;6.13;;;3.40;1.00;;;;;;5004825;28;20178;-73
2023/04/26 03:36:11;;;;;;;9.60;5.90;;;3.40;1.00;;;;;;5003779;28;20850;-73
2023/04/26 03:38:37;;;;;;;8.10;5.70;;;3.30;1.00;;;;;;4986758;28;20264;-73
2023/04/26 03:41:02;;;;;;;8.93;5.40;;;3.30;1.00;;;;;;5008032;28;20189;-73
2023/04/26 03:43:28;;;;;;;9.30;5.33;;;3.30;1.00;;;;;;5009334;28;20390;-73
2023/04/26 03:45:54;;;;;;;14.13;6.00;;;3.30;1.00;;;;;;5002421;28;20297;-73
2023/04/26 03:48:19;;;;;;;10.10;5.57;;;3.70;1.00;;;;;;4978835;28;20699;-74
2023/04/26 03:50:45;;;;;;;9.73;5.57;;;3.20;1.00;;;;;;5001427;28;20437;-75
2023/04/26 03:53:11;;;;;;;9.90;5.70;;;3.50;1.00;;;;;;4985698;28;20221;-73
2023/04/26 03:55:36;;;;;;;8.87;5.70;;;3.10;1.00;;;;;;4989641;28;20179;-73
2023/04/26 03:58:06;;;;;;;8.57;6.00;;;3.10;1.00;;;;;;5007852;28;20464;-73
2023/04/26 04:00:33;;;;;;;7.53;5.40;;;3.10;1.00;;;;;;5004341;28;20997;-74
2023/04/26 04:02:58;;;;;;;13.07;5.27;;;3.10;1.00;;;;;;4985411;28;20437;-73
2023/04/26 04:05:24;;;;;;;7.90;5.10;;;3.40;1.00;;;;;;5007163;28;20452;-74
2023/04/26 04:07:49;;;;;;;10.17;6.27;;;2.90;1.00;;;;;;5006289;28;20276;-73
2023/04/26 04:10:15;;;;;;;13.03;6.67;;;2.90;1.00;;;;;;5007427;28;20214;-74
2023/04/26 04:12:40;;;;;;;22.33;11.37;;;2.80;1.00;;;;;;5000243;28;20209;-73
2023/04/26 04:15:07;;;;;;;19.97;10.33;;;3.20;1.00;;;;;;5006976;28;20249;-74
2023/04/26 04:17:32;;;;;;;20.13;11.10;;;2.80;1.00;;;;;;5001423;28;20207;-73
2023/04/26 04:19:58;;;;;;;24.53;13.03;;;3.20;1.00;;;;;;5002579;28;20449;-72
2023/04/26 04:22:23;;;;;;;23.03;11.83;;;2.80;1.00;;;;;;5002633;28;20205;-73
2023/04/26 04:24:49;;;;;;;13.47;8.93;;;2.80;1.00;;;;;;5000918;28;20184;-75
2023/04/26 04:27:15;;;;;;;12.07;7.40;;;2.80;1.00;;;;;;5002609;28;20225;-73
2023/04/26 04:29:41;;;;;;;9.47;6.37;;;2.80;1.00;;;;;;4991956;28;20222;-73
2023/04/26 04:32:06;;;;;;;9.70;5.97;;;2.90;1.00;;;;;;5007593;28;20437;-73
2023/04/26 04:34:35;;;;;;;10.33;5.83;;;2.90;1.00;;;;;;5005608;28;20183;-72
2023/04/26 04:37:01;;;;;;;9.43;5.80;;;2.90;1.00;;;;;;4996557;28;20183;-73
2023/04/26 04:39:26;;;;;;;12.07;6.37;;;2.90;1.00;;;;;;4981502;28;20500;-73
2023/04/26 04:41:53;;;;;;;8.53;5.70;;;3.00;1.00;;;;;;4981403;28;20480;-72
2023/04/26 04:44:19;;;;;;;8.30;5.40;;;3.10;1.00;;;;;;5007778;28;20206;-74
2023/04/26 04:46:45;;;;;;;8.63;5.43;;;3.10;1.00;;;;;;5008373;28;20451;-73
2023/04/26 04:49:11;;;;;;;7.27;5.50;;;3.20;1.00;;;;;;4999969;28;20492;-72
2023/04/26 04:51:37;;;;;;;7.53;5.27;;;3.30;1.00;;;;;;5008626;28;20210;-73
2023/04/26 04:54:14;;;;;;;10.80;5.00;;;3.40;1.00;;;;;;5005506;28;20432;-74
2023/04/26 04:56:40;;;;;;;19.03;6.20;;;3.50;1.00;;;;;;5059045;23;20496;-77
2023/04/26 04:59:06;;;;;;;9.97;5.10;;;3.20;1.00;;;;;;5027569;28;20432;-78
2023/04/26 05:01:33;;;;;;;15.77;6.90;;;3.70;1.00;;;;;;5102867;22;20217;-78
2023/04/26 05:03:59;;;;;;;13.27;5.87;;;3.80;1.00;;;;;;5222968;22;20482;-79
2023/04/26 05:06:26;;;;;;;9.50;5.17;;;3.80;1.00;;;;;;4999412;28;20457;-78
2023/04/26 05:08:52;;;;;;;10.50;5.40;;;3.90;1.00;;;;;;4999102;28;20457;-80
2023/04/26 05:13:53;;;;;;;7.90;4.93;;;4.20;1.00;;;;;;5296178;22;20505;-78
2023/04/26 05:16:19;;;;;;;11.20;6.27;;;4.30;1.00;;;;;;5436143;22;20450;-78
2023/04/26 05:26:24;;;;;;;11.20;5.43;;;4.80;1.00;;;;;;5195437;22;21051;-77
2023/04/26 05:28:49;;;;;;;7.33;5.47;;;4.90;1.00;;;;;;4972415;28;20465;-80
2023/04/26 05:36:22;;;;;;;10.17;6.00;;;5.30;1.00;;;;;;5077660;22;21213;-76
2023/04/26 05:38:48;;;;;;;10.27;5.80;;;5.40;1.00;;;;;;5010013;28;20417;-75
2023/04/26 05:41:13;;;;;;;9.13;5.37;;;5.40;1.00;;;;;;5009970;28;20174;-76
2023/04/26 05:43:39;;;;;;;10.97;6.33;;;5.70;1.00;;;;;;5010965;28;20660;-77
2023/04/26 06:06:47;;;;;;;8.70;5.70;;;6.00;1.00;;;;;;5054525;22;20488;-77
2023/04/26 06:09:13;;;;;;;7.47;5.67;;;6.60;1.00;;;;;;4992487;28;20469;-74
2023/04/26 06:16:49;;;;;;;9.20;5.73;;;6.30;1.00;;;;;;5027184;22;21049;-77
2023/04/26 06:19:14;;;;;;;9.17;5.53;;;6.70;1.00;;;;;;5010766;28;20434;-75
2023/04/26 06:21:40;;;;;;;10.13;5.30;;;6.40;1.00;;;;;;5011504;28;20214;-76
2023/04/26 06:24:06;;;;;;;7.23;5.00;;;6.50;1.00;;;;;;4993762;28;20261;-77
2023/04/26 06:26:31;;;;;;;12.13;6.00;;;6.60;1.00;;;;;;5009947;28;20221;-76
2023/04/26 06:28:57;;;;;;;11.70;5.73;;;6.90;1.00;;;;;;5070133;22;20214;-76
2023/04/26 06:31:22;;;;;;;9.80;5.13;;;7.00;1.00;;;;;;5020190;28;20185;-75
2023/04/26 06:33:48;;;;;;;8.77;5.40;;;7.20;1.00;;;;;;5029651;28;20173;-76
2023/04/26 06:36:14;;;;;;;10.20;5.33;;;7.40;1.00;;;;;;5011852;28;20182;-75
2023/04/26 06:38:39;;;;;;;13.87;5.70;;;8.00;1.00;;;;;;5024132;28;20193;-76
2023/04/26 06:41:05;;;;;;;11.40;5.50;;;7.70;1.00;;;;;;5013636;28;20186;-76
2023/04/26 06:43:30;;;;;;;9.83;6.00;;;7.90;1.00;;;;;;5005233;28;20265;-75
2023/04/26 06:45:56;;;;;;;15.70;6.20;;;8.10;1.00;;;;;;5013903;28;20178;-76
2023/04/26 06:48:21;;;;;;;9.67;5.10;;;8.30;1.00;;;;;;5013375;28;20182;-75
2023/04/26 06:50:47;;;;;;;7.00;4.73;;;8.40;1.00;;;;;;4995612;28;20202;-76
2023/04/26 06:53:12;;;;;;;7.20;4.80;;;8.60;1.00;;;;;;5005441;28;20277;-76
2023/04/26 06:55:38;;;;;;;7.60;5.43;;;8.90;1.00;;;;;;5013366;28;20189;-76
2023/04/26 06:58:03;;;;;;;8.77;4.90;;;9.00;1.00;;;;;;4995830;28;20187;-76
2023/04/26 07:00:29;;;;;;;9.13;5.20;;;9.30;1.00;;;;;;4995387;28;20206;-74
2023/04/26 07:02:55;;;;;;;7.63;5.07;;;9.60;1.00;;;;;;5013402;28;20194;-76
2023/04/26 07:05:20;;;;;;;6.80;4.57;;;9.90;1.00;;;;;;5013382;28;20195;-76
2023/04/26 07:07:46;;;;;;;5.90;4.97;;;10.20;1.00;;;;;;5013354;28;20187;-76
2023/04/26 07:10:12;;;;;;;7.57;4.87;;;10.40;1.00;;;;;;4995644;28;20716;-76
2023/04/26 07:12:38;;;;;;;9.83;3.80;;;10.60;1.00;;;;;;4986965;28;20183;-75
2023/04/26 07:15:05;;;;;;;8.03;4.67;;;10.50;1.00;;;;;;5012668;28;20435;-76
2023/04/26 07:17:31;;;;;;;5.57;4.33;;;10.60;1.00;;;;;;5013256;28;20253;-76
2023/04/26 07:19:57;;;;;;;6.83;4.47;;;11.10;1.00;;;;;;4987334;28;20449;-76
2023/04/26 07:22:23;;;;;;;8.30;4.27;;;11.20;1.00;;;;;;5012988;28;20487;-76
2023/04/26 07:24:48;;;;;;;9.20;4.03;;;11.40;1.00;;;;;;5013101;28;20193;-77
2023/04/26 07:27:14;;;;;;;6.87;4.07;;;11.70;1.00;;;;;;4995415;28;20194;-76
2023/04/26 07:29:39;;;;;;;9.03;4.40;;;12.00;1.00;;;;;;5012526;28;20680;-76
2023/04/26 07:32:05;;;;;;;12.10;4.83;;;12.20;1.00;;;;;;4995031;28;20190;-76
2023/04/26 07:34:31;;;;;;;7.90;3.90;;;12.40;1.00;;;;;;5012699;28;20190;-76
2023/04/26 07:36:57;;;;;;;7.40;3.40;;;12.80;1.00;;;;;;5012733;28;20437;-76
2023/04/26 07:39:23;;;;;;;9.03;3.80;;;13.10;1.00;;;;;;5012569;28;20219;-77
2023/04/26 07:41:48;;;;;;;4.90;3.57;;;13.40;1.00;;;;;;5012302;28;20273;-77
2023/04/26 07:44:14;;;;;;;6.37;3.57;;;13.40;1.00;;;;;;4995161;28;20197;-76
2023/04/26 07:46:39;;;;;;;6.47;4.03;;;13.30;1.00;;;;;;5012453;28;20186;-77
2023/04/26 07:49:05;;;;;;;8.30;4.13;;;13.20;1.00;;;;;;5011280;28;20268;-76
2023/04/26 07:51:31;;;;;;;9.10;5.27;;;13.20;1.00;;;;;;4992858;28;20208;-76
2023/04/26 07:53:56;;;;;;;6.40;4.43;;;13.00;1.00;;;;;;5006272;28;20482;-76
2023/04/26 07:56:23;;;;;;;6.70;3.70;;;13.60;1.00;;;;;;5004335;28;20270;-75
2023/04/26 07:58:48;;;;;;;8.60;3.90;;;15.90;1.00;;;;;;5012586;28;20179;-76
2023/04/26 08:01:14;;;;;;;6.07;4.53;;;16.00;1.00;;;;;;4994530;28;21011;-76
2023/04/26 08:03:40;;;;;;;8.07;4.47;;;17.20;1.00;;;;;;5012094;28;20198;-77
2023/04/26 08:06:07;;;;;;;7.27;4.60;;;18.30;1.00;;;;;;5001202;28;20939;-77
2023/04/26 08:08:34;;;;;;;10.13;4.60;;;19.20;1.00;;;;;;5010455;28;20842;-75
2023/04/26 08:11:00;;;;;;;9.10;5.00;;;20.00;1.00;;;;;;5011756;28;20457;-78
2023/04/26 08:13:25;;;;;;;8.83;4.93;;;20.50;1.00;;;;;;5011953;28;20538;-76
2023/04/26 08:15:51;;;;;;;8.50;5.23;;;21.40;1.00;;;;;;4994719;28;20186;-77
2023/04/26 08:18:16;;;;;;;6.67;4.70;;;22.30;1.00;;;;;;4994395;28;20193;-76
2023/04/26 08:20:42;;;;;;;7.10;4.60;;;23.10;1.00;;;;;;5010483;28;20198;-77
2023/04/26 08:23:08;;;;;;;10.40;5.03;;;23.70;1.00;;;;;;5011936;28;20179;-77
2023/04/26 08:25:33;;;;;;;7.07;4.33;;;24.00;1.00;;;;;;5011750;28;20185;-75
2023/04/26 08:28:00;;;;;;;9.43;3.87;;;24.10;1.00;;;;;;4994423;28;20524;-76
2023/04/26 08:30:26;;;;;;;8.50;4.60;;;24.50;1.00;;;;;;4993719;28;20628;-75
2023/04/26 08:32:51;;;;;;;7.20;4.17;;;24.50;1.00;;;;;;5011788;28;20511;-75
2023/04/26 08:35:17;;;;;;;6.57;3.70;;;24.50;1.00;;;;;;5011790;28;20206;-79
2023/04/26 08:37:42;;;;;;;6.07;4.67;;;24.40;1.00;;;;;;5011399;28;20182;-77
2023/04/26 08:40:11;;;;;;;10.97;4.70;;;23.40;1.00;;;;;;4993780;28;20206;-77
2023/04/26 08:42:42;;;;;;;8.00;4.70;;;23.00;1.00;;;;;;5003017;28;20674;-76
2023/04/26 08:45:10;;;;;;;6.77;4.47;;;23.40;1.00;;;;;;5011609;28;20822;-77
2023/04/26 08:47:43;;;;;;;7.33;4.63;;;24.00;1.00;;;;;;4993676;28;20487;-78
2023/04/26 08:50:11;;;;;;;9.00;4.23;;;24.30;1.00;;;;;;5011379;28;20969;-77
2023/04/26 08:52:39;;;;;;;10.80;4.70;;;24.90;1.00;;;;;;5010512;28;20192;-77
2023/04/26 08:55:08;;;;;;;6.80;4.10;;;25.10;1.00;;;;;;4993819;28;20967;-75
2023/04/26 08:57:34;;;;;;;8.63;4.67;;;25.80;1.00;;;;;;4993661;28;20182;-77
2023/04/26 09:00:04;;;;;;;6.83;4.30;;;25.70;1.00;;;;;;5010880;28;20201;-77
2023/04/26 09:02:30;;;;;;;7.13;4.70;;;24.40;1.00;;;;;;5010799;28;20181;-77
2023/04/26 09:04:56;;;;;;;10.10;5.10;;;23.20;1.00;;;;;;4993396;28;20178;-77
2023/04/26 09:07:25;;;;;;;7.77;4.70;;;23.50;1.00;;;;;;5011121;28;20194;-77
2023/04/26 09:09:53;;;;;;;6.80;4.60;;;24.90;1.00;;;;;;5010682;28;20762;-76
2023/04/26 09:12:20;;;;;;;8.50;4.70;;;25.30;1.00;;;;;;4993088;28;20429;-75
2023/04/26 09:14:46;;;;;;;7.13;4.47;;;24.80;1.00;;;;;;5010900;28;20185;-76
2023/04/26 09:17:45;;;;;;;9.70;4.43;;;23.80;1.00;;;;;;5011132;28;20182;-76
2023/04/26 09:20:24;;;;;;;8.33;4.53;;;22.20;1.00;;;;;;4972637;28;20452;-76
2023/04/26 09:22:52;;;;;;;7.00;4.30;;;20.90;1.00;;;;;;4985262;28;20423;-76
2023/04/26 09:25:26;;;;;;;9.70;4.27;;;20.10;1.00;;;;;;5010905;28;20432;-77
2023/04/26 09:27:52;;;;;;;9.60;4.60;;;19.70;1.00;;;;;;5003092;28;20424;-76
2023/04/26 09:30:19;;;;;;;7.00;4.40;;;19.20;1.00;;;;;;5010301;28;20472;-75
2023/04/26 09:33:01;;;;;;;9.13;4.50;;;18.60;1.00;;;;;;4992742;28;20183;-75
2023/04/26 09:35:38;;;;;;;8.13;4.37;;;18.10;1.00;;;;;;5010504;28;20763;-75
2023/04/26 09:38:05;;;;;;;10.00;4.57;;;17.80;1.00;;;;;;5010739;28;20923;-75
2023/04/26 09:40:33;;;;;;;8.90;4.80;;;17.70;1.00;;;;;;5009706;28;20449;-75
2023/04/26 09:43:06;;;;;;;8.13;4.60;;;17.50;1.00;;;;;;4985939;28;20468;-75
2023/04/26 09:45:43;;;;;;;6.77;4.83;;;17.30;1.00;;;;;;4992654;28;20425;-75
2023/04/26 09:48:17;;;;;;;7.20;5.00;;;17.20;1.00;;;;;;5010570;28;20856;-76
2023/04/26 09:50:45;;;;;;;8.23;4.80;;;17.10;1.00;;;;;;5001996;28;20591;-76
2023/04/26 09:53:23;;;;;;;7.60;4.60;;;17.00;1.00;;;;;;5010341;28;20495;-75
2023/04/26 09:55:49;;;;;;;9.83;4.83;;;17.60;1.00;;;;;;5010281;28;20953;-75
2023/04/26 09:58:15;;;;;;;10.60;4.70;;;18.70;1.00;;;;;;5010476;28;20473;-75
2023/04/26 10:00:41;;;;;;;8.97;4.77;;;19.70;1.00;;;;;;5002482;28;20215;-75
2023/04/26 10:03:08;;;;;;;9.07;4.40;;;21.00;1.00;;;;;;5002201;28;20429;-75
2023/04/26 10:05:35;;;;;;;9.70;4.37;;;21.90;1.00;;;;;;5009649;28;20436;-76
2023/04/26 10:08:02;;;;;;;9.70;5.47;;;21.00;1.00;;;;;;5010257;28;20440;-75
2023/04/26 10:10:30;;;;;;;9.00;4.63;;;20.60;1.00;;;;;;4990970;28;20469;-76
2023/04/26 10:12:55;;;;;;;6.63;4.13;;;20.10;1.00;;;;;;5009393;28;20432;-76
2023/04/26 10:15:21;;;;;;;9.13;4.27;;;19.90;1.00;;;;;;5010214;28;20426;-75
2023/04/26 10:17:47;;;;;;;12.60;4.77;;;19.70;1.00;;;;;;5010357;28;20236;-76
2023/04/26 10:20:15;;;;;;;9.23;4.60;;;19.30;1.00;;;;;;5009846;28;20590;-75
2023/04/26 10:22:52;;;;;;;7.90;4.97;;;18.90;1.00;;;;;;5009628;28;20186;-75
2023/04/26 10:25:17;;;;;;;9.03;4.70;;;18.30;1.00;;;;;;4992434;28;20436;-76
2023/04/26 10:27:43;;;;;;;8.23;4.70;;;17.80;1.00;;;;;;5009737;28;20426;-74
2023/04/26 10:30:19;;;;;;;10.37;5.33;;;17.30;1.00;;;;;;5009698;28;20219;-75
2023/04/26 10:32:56;;;;;;;13.00;5.60;;;17.20;1.00;;;;;;5009278;28;20676;-75
2023/04/26 10:35:31;;;;;;;9.07;5.67;;;17.20;1.00;;;;;;4992352;28;20432;-75
2023/04/26 10:37:59;;;;;;;10.40;5.20;;;17.00;1.00;;;;;;5009974;28;20428;-76
2023/04/26 10:40:37;;;;;;;8.57;4.83;;;16.90;1.00;;;;;;4992203;28;20603;-75
2023/04/26 10:43:13;;;;;;;9.73;5.10;;;17.10;1.00;;;;;;5003345;28;20901;-75
2023/04/26 10:45:40;;;;;;;9.37;4.93;;;17.60;1.00;;;;;;5009621;28;20456;-73
2023/04/26 10:48:17;;;;;;;7.73;5.20;;;17.80;1.00;;;;;;5010033;28;20475;-76
2023/04/26 10:51:00;;;;;;;8.20;5.07;;;18.00;1.00;;;;;;5010020;28;20475;-75
2023/04/26 10:53:31;;;;;;;7.53;4.87;;;18.30;1.00;;;;;;4991683;28;20838;-76
2023/04/26 10:55:57;;;;;;;10.30;5.40;;;19.10;1.00;;;;;;4984668;28;20452;-75
2023/04/26 10:58:29;;;;;;;12.00;5.33;;;19.90;1.00;;;;;;5009791;28;20950;-75
2023/04/26 11:01:03;;;;;;;8.90;5.10;;;20.20;1.00;;;;;;4991385;28;20194;-75
2023/04/26 11:03:30;;;;;;;7.43;4.87;;;20.10;1.00;;;;;;5009678;28;20864;-76
2023/04/26 11:05:56;;;;;;;9.23;5.10;;;19.70;1.00;;;;;;4991324;28;20954;-76
2023/04/26 11:08:30;;;;;;;9.40;4.70;;;19.50;1.00;;;;;;5009647;28;20450;-76
2023/04/26 11:11:02;;;;;;;10.40;4.90;;;19.40;1.00;;;;;;5007731;28;20927;-75
2023/04/26 11:13:40;;;;;;;8.47;4.33;;;20.30;1.00;;;;;;5009723;28;20413;-75
2023/04/26 11:16:08;;;;;;;10.20;4.67;;;21.50;1.00;;;;;;5002988;28;20425;-75
2023/04/26 11:18:36;;;;;;;7.53;4.70;;;23.20;1.00;;;;;;5009178;28;20431;-76
2023/04/26 11:21:01;;;;;;;7.87;4.60;;;23.10;1.00;;;;;;5009350;28;20456;-75
2023/04/26 11:23:29;;;;;;;7.00;4.07;;;22.50;1.00;;;;;;5010418;28;20900;-76
2023/04/26 11:26:01;;;;;;;9.80;5.00;;;21.90;1.00;;;;;;5013212;28;20182;-75
2023/04/26 11:28:27;;;;;;;7.97;5.20;;;21.00;1.00;;;;;;5005481;28;20430;-76
2023/04/26 11:30:52;;;;;;;11.47;5.20;;;20.60;1.00;;;;;;4993803;28;20526;-76
2023/04/26 11:33:21;;;;;;;7.80;4.90;;;19.90;1.00;;;;;;4995347;28;20320;-75
2023/04/26 11:35:51;;;;;;;7.43;4.83;;;19.90;1.00;;;;;;5012601;28;20197;-76
2023/04/26 11:38:20;;;;;;;10.73;4.93;;;19.20;1.00;;;;;;5013033;28;20425;-76
2023/04/26 11:41:02;;;;;;;6.00;4.33;;;19.70;1.00;;;;;;4994858;28;20456;-75
2023/04/26 11:43:35;;;;;;;11.10;4.77;;;22.40;1.00;;;;;;5013083;28;20752;-74
2023/04/26 11:46:01;;;;;;;9.90;4.50;;;24.60;1.00;;;;;;5012807;28;20446;-76
2023/04/26 11:48:28;;;;;;;7.83;4.20;;;25.70;1.00;;;;;;5012902;28;20739;-76
2023/04/26 11:50:57;;;;;;;7.50;4.33;;;27.70;1.00;;;;;;5011931;28;20571;-74
2023/04/26 11:53:23;;;;;;;6.30;4.17;;;28.80;1.00;;;;;;5012647;28;20425;-77
2023/04/26 11:55:49;;;;;;;7.53;4.13;;;30.10;1.00;;;;;;5009007;28;20188;-77
2023/04/26 11:58:15;;;;;;;8.02;4.30;;;31.10;1.00;;;;;;5012609;28;20243;-77
2023/04/26 12:01:03;;;;;;;8.35;3.85;;;31.10;1.00;;;;;;4994273;28;20752;-76
2023/04/26 12:03:36;;;;;;;7.78;4.13;;;31.00;1.00;;;;;;5012430;28;20186;-76
2023/04/26 12:06:05;;;;;;;10.85;4.28;;;30.60;1.00;;;;;;5010927;28;20174;-76
2023/04/26 12:08:32;;;;;;;9.02;4.07;;;29.40;1.00;;;;;;4994524;28;20283;-76
2023/04/26 12:11:01;;;;;;;6.43;4.20;;;29.50;1.00;;;;;;4993841;28;20204;-77
2023/04/26 12:13:28;;;;;;;9.33;4.07;;;28.20;1.00;;;;;;5012217;28;20190;-76
2023/04/26 12:15:54;;;;;;;9.33;4.70;;;26.00;1.00;;;;;;4994346;28;20181;-76
2023/04/26 12:18:20;;;;;;;6.60;4.10;;;25.70;1.00;;;;;;5012179;28;20182;-76
2023/04/26 12:20:45;;;;;;;6.03;3.60;;;27.20;1.00;;;;;;4993963;28;20296;-76
2023/04/26 12:23:16;;;;;;;6.80;3.93;;;28.80;1.00;;;;;;4994229;28;20308;-75
2023/04/26 12:25:55;;;;;;;6.83;4.30;;;28.20;1.00;;;;;;5011747;28;20671;-75
2023/04/26 12:28:22;;;;;;;7.33;4.50;;;27.30;1.00;;;;;;5012062;28;20182;-75
2023/04/26 12:30:48;;;;;;;7.50;3.90;;;28.20;1.00;;;;;;4992585;28;20221;-76
2023/04/26 12:33:13;;;;;;;8.80;4.30;;;29.40;1.00;;;;;;4988012;28;20675;-76
2023/04/26 12:35:39;;;;;;;8.70;4.33;;;29.50;1.00;;;;;;5010637;28;20186;-75
2023/04/26 12:38:05;;;;;;;10.30;4.17;;;28.80;1.00;;;;;;4990267;28;20178;-76
2023/04/26 12:40:31;;;;;;;9.67;4.53;;;28.00;1.00;;;;;;5007554;28;20660;-75
2023/04/26 12:42:57;;;;;;;9.97;4.37;;;28.10;1.00;;;;;;5011353;28;20562;-76
2023/04/26 12:45:24;;;;;;;7.10;4.20;;;29.10;1.00;;;;;;4994032;28;20648;-76
2023/04/26 12:47:50;;;;;;;7.78;4.28;;;30.70;1.00;;;;;;5011417;28;20280;-76
2023/04/26 12:50:16;;;;;;;8.55;3.80;;;31.60;1.00;;;;;;5011290;28;20209;-76
2023/04/26 12:52:43;;;;;;;7.13;3.70;;;32.10;1.00;;;;;;5003133;28;20179;-77
2023/04/26 12:55:13;;;;;;;7.20;4.15;;;31.40;1.00;;;;;;5011837;28;20723;-76
2023/04/26 12:57:41;;;;;;;9.55;3.90;;;30.90;1.00;;;;;;4993517;28;20181;-75
2023/04/26 13:00:10;;;;;;;7.50;3.80;;;30.70;1.00;;;;;;5011340;28;20205;-76
2023/04/26 13:02:36;;;;;;;7.28;4.00;;;31.90;1.00;;;;;;4993360;28;20271;-75
2023/04/26 13:05:03;;;;;;;8.55;3.40;;;32.30;1.00;;;;;;5010952;28;20224;-76
2023/04/26 13:07:32;;;;;;;7.38;4.30;;;30.80;1.00;;;;;;4986718;28;20198;-77
2023/04/26 13:09:59;;;;;;;9.02;4.80;;;29.30;1.00;;;;;;5010159;28;20221;-75
2023/04/26 13:12:24;;;;;;;7.00;3.63;;;28.70;1.00;;;;;;5007560;28;20185;-76
2023/04/26 13:14:50;;;;;;;8.03;4.00;;;28.10;1.00;;;;;;4993256;28;20273;-76
2023/04/26 13:17:16;;;;;;;6.07;3.80;;;27.70;1.00;;;;;;4993484;28;20205;-76
2023/04/26 13:19:41;;;;;;;5.93;3.70;;;27.20;1.00;;;;;;4993083;28;20197;-76
2023/04/26 13:22:09;;;;;;;7.23;3.80;;;26.40;1.00;;;;;;4993207;28;20178;-76
2023/04/26 13:24:35;;;;;;;7.80;4.00;;;27.00;1.00;;;;;;5011208;28;20218;-76
2023/04/26 13:27:01;;;;;;;6.60;3.87;;;28.20;1.00;;;;;;5010592;28;20279;-75
2023/04/26 13:29:26;;;;;;;8.33;3.73;;;28.60;1.00;;;;;;5010663;28;20652;-76
2023/04/26 13:31:52;;;;;;;8.75;3.80;;;29.10;1.00;;;;;;4992390;28;20208;-76
2023/04/26 13:34:18;;;;;;;10.27;4.43;;;30.10;1.00;;;;;;5009670;28;20213;-77
2023/04/26 13:36:43;;;;;;;6.40;3.85;;;30.30;1.00;;;;;;5010390;28;20236;-76
2023/04/26 13:39:09;;;;;;;7.57;4.18;;;31.00;1.00;;;;;;5011083;28;20229;-74